createdAt,value
2018-05-17T00:00:44.905Z,0
2018-05-17T00:01:45.475Z,0
2018-05-17T00:02:46.054Z,0
2018-05-17T00:03:46.625Z,0
2018-05-17T00:04:47.194Z,0
2018-05-17T00:05:47.763Z,0
2018-05-17T00:06:48.332Z,0
2018-05-17T00:07:48.901Z,0
2018-05-17T00:08:49.473Z,0
2018-05-17T00:09:50.041Z,0
2018-05-17T00:10:50.609Z,0
2018-05-17T00:11:51.178Z,0
2018-05-17T00:12:51.748Z,0
2018-05-17T00:13:52.317Z,0
2018-05-17T00:14:52.885Z,0
2018-05-17T00:15:53.458Z,0
2018-05-17T00:16:54.033Z,0
2018-05-17T00:17:54.603Z,0
2018-05-17T00:18:55.175Z,0
2018-05-17T00:19:55.743Z,0
2018-05-17T00:20:56.323Z,0
2018-05-17T00:21:56.895Z,0
2018-05-17T00:22:57.465Z,0
2018-05-17T00:23:58.036Z,0
2018-05-17T00:24:58.608Z,0
2018-05-17T00:25:59.173Z,0
2018-05-17T00:26:59.742Z,0
2018-05-17T00:28:00.313Z,0
2018-05-17T00:29:00.882Z,0
2018-05-17T00:30:01.462Z,0
2018-05-17T00:31:02.034Z,0
2018-05-17T00:32:02.613Z,0
2018-05-17T00:33:03.180Z,0
2018-05-17T00:34:03.748Z,0
2018-05-17T00:35:04.317Z,0
2018-05-17T00:36:04.898Z,0
2018-05-17T00:37:05.466Z,0
2018-05-17T00:38:06.049Z,0
2018-05-17T00:39:06.617Z,0
2018-05-17T00:40:07.192Z,0
2018-05-17T00:41:07.767Z,0
2018-05-17T00:42:08.335Z,0
2018-05-17T00:43:08.905Z,0
2018-05-17T00:44:09.473Z,0
2018-05-17T00:45:10.042Z,0
2018-05-17T00:46:10.612Z,0
2018-05-17T00:47:11.182Z,0
2018-05-17T00:48:11.753Z,0
2018-05-17T00:49:12.323Z,0
2018-05-17T00:50:12.893Z,0
2018-05-17T00:51:13.463Z,0
2018-05-17T00:52:14.042Z,0
2018-05-17T00:53:14.612Z,0
2018-05-17T00:54:15.182Z,0
2018-05-17T00:55:15.752Z,0
2018-05-17T00:56:16.321Z,0
2018-05-17T00:57:16.892Z,0
2018-05-17T00:58:17.471Z,0
2018-05-17T00:59:18.042Z,0
2018-05-17T01:00:18.609Z,0
2018-05-17T01:01:19.181Z,0
2018-05-17T01:02:19.751Z,0
2018-05-17T01:03:20.321Z,0
2018-05-17T01:04:20.893Z,0
2018-05-17T01:05:21.476Z,0
2018-05-17T01:06:22.041Z,0
2018-05-17T01:07:22.612Z,0
2018-05-17T01:08:23.182Z,0
2018-05-17T01:09:23.753Z,0
2018-05-17T01:10:24.321Z,0
2018-05-17T01:11:24.893Z,0
2018-05-17T01:12:25.462Z,0
2018-05-17T01:13:26.033Z,0
2018-05-17T01:14:26.601Z,0
2018-05-17T01:15:27.181Z,0
2018-05-17T01:16:27.751Z,0
2018-05-17T01:17:28.320Z,0
2018-05-17T01:18:28.892Z,0
2018-05-17T01:19:29.463Z,0
2018-05-17T01:20:30.034Z,0
2018-05-17T01:21:30.603Z,0
2018-05-17T01:22:31.174Z,0
2018-05-17T01:23:31.744Z,0
2018-05-17T01:24:32.316Z,0
2018-05-17T01:25:32.886Z,0
2018-05-17T01:26:33.458Z,0
2018-05-17T01:27:34.029Z,0
2018-05-17T01:28:34.597Z,0
2018-05-17T01:29:35.168Z,0
2018-05-17T01:30:35.741Z,0
2018-05-17T01:31:36.320Z,0
2018-05-17T01:32:36.891Z,0
2018-05-17T01:33:37.461Z,0
2018-05-17T01:34:38.030Z,0
2018-05-17T01:35:38.613Z,0
2018-05-17T01:36:39.182Z,0
2018-05-17T01:37:39.753Z,0
2018-05-17T01:38:40.322Z,0
2018-05-17T01:39:40.894Z,0
2018-05-17T01:40:41.560Z,0
2018-05-17T01:41:42.047Z,0
2018-05-17T01:42:42.619Z,0
2018-05-17T01:43:43.220Z,0
2018-05-17T01:44:43.770Z,0
2018-05-17T01:45:44.344Z,0
2018-05-17T01:46:44.925Z,0
2018-05-17T01:47:45.496Z,0
2018-05-17T01:48:46.068Z,0
2018-05-17T01:49:46.650Z,0
2018-05-17T01:50:47.220Z,0
2018-05-17T01:51:47.792Z,0
2018-05-17T01:52:48.362Z,0
2018-05-17T01:53:48.933Z,0
2018-05-17T01:54:49.502Z,0
2018-05-17T01:55:50.072Z,0
2018-05-17T01:56:50.641Z,0
2018-05-17T01:57:51.213Z,0
2018-05-17T01:58:51.788Z,0
2018-05-17T01:59:52.355Z,0
2018-05-17T02:00:52.931Z,0
2018-05-17T02:01:53.496Z,0
2018-05-17T02:02:54.066Z,0
2018-05-17T02:03:54.636Z,0
2018-05-17T02:04:55.206Z,0
2018-05-17T02:05:55.775Z,0
2018-05-17T02:06:56.345Z,0
2018-05-17T02:07:56.916Z,0
2018-05-17T02:08:57.486Z,0
2018-05-17T02:09:58.067Z,0
2018-05-17T02:10:58.636Z,0
2018-05-17T02:11:59.205Z,0
2018-05-17T02:12:59.781Z,0
2018-05-17T02:14:00.351Z,0
2018-05-17T02:15:00.928Z,0
2018-05-17T02:16:01.502Z,0
2018-05-17T02:17:02.072Z,0
2018-05-17T02:18:02.639Z,0
2018-05-17T02:19:03.211Z,0
2018-05-17T02:20:03.781Z,0
2018-05-17T02:21:04.351Z,0
2018-05-17T02:22:04.921Z,0
2018-05-17T02:23:05.490Z,0
2018-05-17T02:24:06.061Z,0
2018-05-17T02:25:06.630Z,0
2018-05-17T02:26:07.200Z,0
2018-05-17T02:27:07.773Z,0
2018-05-17T02:28:08.342Z,0
2018-05-17T02:29:08.914Z,0
2018-05-17T02:30:09.483Z,0
2018-05-17T02:31:10.053Z,0
2018-05-17T02:32:10.622Z,0
2018-05-17T02:33:11.193Z,0
2018-05-17T02:34:11.761Z,0
2018-05-17T02:35:12.330Z,0
2018-05-17T02:36:12.901Z,0
2018-05-17T02:37:13.471Z,0
2018-05-17T02:38:14.042Z,0
2018-05-17T02:39:14.613Z,0
2018-05-17T02:40:15.184Z,0
2018-05-17T02:41:15.756Z,0
2018-05-17T02:42:16.325Z,0
2018-05-17T02:43:16.895Z,0
2018-05-17T02:44:17.468Z,0
2018-05-17T02:45:18.037Z,0
2018-05-17T02:46:18.606Z,0
2018-05-17T02:47:19.187Z,0
2018-05-17T02:48:19.767Z,0
2018-05-17T02:49:20.334Z,0
2018-05-17T02:50:20.905Z,0
2018-05-17T02:51:21.475Z,0
2018-05-17T02:52:22.044Z,0
2018-05-17T02:53:22.615Z,0
2018-05-17T02:54:23.192Z,0
2018-05-17T02:55:23.763Z,0
2018-05-17T02:56:24.332Z,0
2018-05-17T02:57:24.904Z,0
2018-05-17T02:58:25.476Z,0
2018-05-17T02:59:26.056Z,0
2018-05-17T03:00:26.627Z,0
2018-05-17T03:01:27.197Z,0
2018-05-17T03:02:27.767Z,0
2018-05-17T03:03:28.342Z,0
2018-05-17T03:04:28.918Z,0
2018-05-17T03:05:29.489Z,0
2018-05-17T03:06:30.060Z,0
2018-05-17T03:07:30.631Z,0
2018-05-17T03:08:31.205Z,0
2018-05-17T03:09:31.781Z,0
2018-05-17T03:10:32.342Z,0
2018-05-17T03:11:32.917Z,0
2018-05-17T03:12:33.493Z,0
2018-05-17T03:13:34.063Z,0
2018-05-17T03:14:34.633Z,0
2018-05-17T03:15:35.211Z,0
2018-05-17T03:16:35.785Z,0
2018-05-17T03:17:36.356Z,4
2018-05-17T03:18:36.938Z,0
2018-05-17T03:19:37.523Z,0
2018-05-17T03:20:38.102Z,0
2018-05-17T03:21:38.671Z,0
2018-05-17T03:22:39.257Z,0
2018-05-17T03:23:39.823Z,4
2018-05-17T03:24:40.392Z,4
2018-05-17T03:25:40.964Z,4
2018-05-17T03:26:41.531Z,4
2018-05-17T03:27:42.101Z,4
2018-05-17T03:28:42.671Z,4
2018-05-17T03:29:43.248Z,4
2018-05-17T03:30:43.826Z,4
2018-05-17T03:31:44.396Z,4
2018-05-17T03:32:44.968Z,4
2018-05-17T03:33:45.541Z,4
2018-05-17T03:34:46.112Z,8
2018-05-17T03:35:46.694Z,8
2018-05-17T03:36:47.265Z,4
2018-05-17T03:37:47.837Z,4
2018-05-17T03:38:48.407Z,8
2018-05-17T03:39:48.977Z,8
2018-05-17T03:40:49.547Z,12
2018-05-17T03:41:50.118Z,8
2018-05-17T03:42:50.688Z,12
2018-05-17T03:43:51.261Z,12
2018-05-17T03:44:51.834Z,12
2018-05-17T03:45:52.403Z,12
2018-05-17T03:46:52.974Z,12
2018-05-17T03:47:53.548Z,16
2018-05-17T03:48:54.128Z,12
2018-05-17T03:49:54.700Z,16
2018-05-17T03:50:55.270Z,12
2018-05-17T03:51:55.841Z,16
2018-05-17T03:52:56.415Z,20
2018-05-17T03:53:56.987Z,20
2018-05-17T03:54:57.558Z,20
2018-05-17T03:55:58.130Z,20
2018-05-17T03:56:58.701Z,20
2018-05-17T03:57:59.273Z,20
2018-05-17T03:58:59.846Z,20
2018-05-17T04:00:00.427Z,24
2018-05-17T04:01:01.009Z,24
2018-05-17T04:02:01.579Z,24
2018-05-17T04:03:02.150Z,24
2018-05-17T04:04:02.721Z,28
2018-05-17T04:05:03.305Z,28
2018-05-17T04:06:03.867Z,28
2018-05-17T04:07:04.439Z,32
2018-05-17T04:08:05.095Z,32
2018-05-17T04:09:05.585Z,36
2018-05-17T04:10:06.156Z,36
2018-05-17T04:11:06.729Z,40
2018-05-17T04:12:07.299Z,40
2018-05-17T04:13:07.869Z,40
2018-05-17T04:14:08.439Z,40
2018-05-17T04:15:09.011Z,48
2018-05-17T04:16:09.584Z,48
2018-05-17T04:17:10.154Z,52
2018-05-17T04:18:10.725Z,52
2018-05-17T04:19:11.297Z,60
2018-05-17T04:20:11.868Z,60
2018-05-17T04:21:12.438Z,64
2018-05-17T04:22:13.009Z,64
2018-05-17T04:23:13.582Z,68
2018-05-17T04:24:14.153Z,68
2018-05-17T04:25:14.724Z,72
2018-05-17T04:26:15.295Z,76
2018-05-17T04:27:15.866Z,80
2018-05-17T04:28:16.439Z,80
2018-05-17T04:29:17.029Z,80
2018-05-17T04:30:17.592Z,80
2018-05-17T04:31:18.167Z,84
2018-05-17T04:32:18.738Z,84
2018-05-17T04:33:19.320Z,88
2018-05-17T04:34:19.893Z,92
2018-05-17T04:35:20.467Z,96
2018-05-17T04:36:21.035Z,92
2018-05-17T04:37:21.606Z,92
2018-05-17T04:38:22.178Z,92
2018-05-17T04:39:22.752Z,100
2018-05-17T04:40:23.401Z,100
2018-05-17T04:41:23.895Z,100
2018-05-17T04:42:24.466Z,100
2018-05-17T04:43:25.049Z,100
2018-05-17T04:44:25.619Z,104
2018-05-17T04:45:26.192Z,108
2018-05-17T04:46:26.764Z,108
2018-05-17T04:47:27.337Z,112
2018-05-17T04:48:27.915Z,112
2018-05-17T04:49:28.481Z,112
2018-05-17T04:50:29.053Z,108
2018-05-17T04:51:29.626Z,108
2018-05-17T04:52:30.203Z,112
2018-05-17T04:53:30.783Z,120
2018-05-17T04:54:31.355Z,124
2018-05-17T04:55:31.927Z,132
2018-05-17T04:56:32.499Z,132
2018-05-17T04:57:33.075Z,140
2018-05-17T04:58:33.644Z,136
2018-05-17T04:59:34.217Z,140
2018-05-17T05:00:34.790Z,148
2018-05-17T05:01:35.361Z,152
2018-05-17T05:02:36.020Z,156
2018-05-17T05:03:36.509Z,160
2018-05-17T05:04:37.080Z,168
2018-05-17T05:05:37.652Z,168
2018-05-17T05:06:38.224Z,164
2018-05-17T05:07:38.799Z,168
2018-05-17T05:08:39.371Z,164
2018-05-17T05:09:39.942Z,164
2018-05-17T05:10:40.514Z,168
2018-05-17T05:11:41.099Z,172
2018-05-17T05:12:41.683Z,180
2018-05-17T05:13:42.256Z,184
2018-05-17T05:14:42.841Z,180
2018-05-17T05:15:43.422Z,176
2018-05-17T05:16:43.996Z,180
2018-05-17T05:17:44.568Z,180
2018-05-17T05:18:45.151Z,184
2018-05-17T05:19:45.725Z,188
2018-05-17T05:20:46.296Z,192
2018-05-17T05:21:46.868Z,196
2018-05-17T05:22:47.443Z,196
2018-05-17T05:23:48.014Z,204
2018-05-17T05:24:48.587Z,208
2018-05-17T05:25:49.159Z,208
2018-05-17T05:26:49.734Z,208
2018-05-17T05:27:50.318Z,216
2018-05-17T05:28:50.893Z,220
2018-05-17T05:29:51.470Z,212
2018-05-17T05:30:52.039Z,208
2018-05-17T05:31:52.625Z,216
2018-05-17T05:32:53.198Z,224
2018-05-17T05:33:53.772Z,228
2018-05-17T05:34:54.346Z,228
2018-05-17T05:35:54.919Z,232
2018-05-17T05:36:55.492Z,240
2018-05-17T05:37:56.065Z,248
2018-05-17T05:38:56.639Z,248
2018-05-17T05:39:57.212Z,248
2018-05-17T05:40:57.786Z,248
2018-05-17T05:41:58.359Z,256
2018-05-17T05:42:58.932Z,256
2018-05-17T05:43:59.506Z,260
2018-05-17T05:45:00.078Z,260
2018-05-17T05:46:00.670Z,264
2018-05-17T05:47:01.234Z,276
2018-05-17T05:48:01.807Z,280
2018-05-17T05:49:02.382Z,280
2018-05-17T05:50:02.955Z,280
2018-05-17T05:51:03.529Z,284
2018-05-17T05:52:04.105Z,292
2018-05-17T05:53:04.676Z,296
2018-05-17T05:54:05.250Z,296
2018-05-17T05:55:05.822Z,292
2018-05-17T05:56:06.397Z,300
2018-05-17T05:57:06.972Z,300
2018-05-17T05:58:07.545Z,312
2018-05-17T05:59:08.123Z,336
2018-05-17T06:00:08.704Z,352
2018-05-17T06:01:09.280Z,348
2018-05-17T06:02:09.852Z,348
2018-05-17T06:03:10.426Z,344
2018-05-17T06:04:11.000Z,336
2018-05-17T06:05:11.573Z,340
2018-05-17T06:06:12.160Z,328
2018-05-17T06:07:12.735Z,328
2018-05-17T06:08:13.310Z,340
2018-05-17T06:09:13.893Z,332
2018-05-17T06:10:14.466Z,332
2018-05-17T06:11:15.044Z,336
2018-05-17T06:12:15.615Z,340
2018-05-17T06:13:16.188Z,352
2018-05-17T06:14:16.775Z,340
2018-05-17T06:15:17.348Z,344
2018-05-17T06:16:17.922Z,364
2018-05-17T06:17:18.504Z,380
2018-05-17T06:18:19.082Z,400
2018-05-17T06:19:19.658Z,412
2018-05-17T06:20:20.234Z,424
2018-05-17T06:21:20.802Z,444
2018-05-17T06:22:21.389Z,460
2018-05-17T06:23:21.960Z,492
2018-05-17T06:24:22.535Z,500
2018-05-17T06:25:23.108Z,484
2018-05-17T06:26:23.681Z,492
2018-05-17T06:27:24.256Z,476
2018-05-17T06:28:24.828Z,452
2018-05-17T06:29:25.404Z,448
2018-05-17T06:30:26.014Z,452
2018-05-17T06:31:26.551Z,452
2018-05-17T06:32:27.129Z,468
2018-05-17T06:33:27.700Z,468
2018-05-17T06:34:28.273Z,452
2018-05-17T06:35:28.849Z,452
2018-05-17T06:36:29.424Z,452
2018-05-17T06:37:30.026Z,456
2018-05-17T06:38:30.572Z,448
2018-05-17T06:39:31.145Z,452
2018-05-17T06:40:31.720Z,468
2018-05-17T06:41:32.291Z,472
2018-05-17T06:42:32.867Z,496
2018-05-17T06:43:33.442Z,472
2018-05-17T06:44:34.090Z,452
2018-05-17T06:45:34.587Z,444
2018-05-17T06:46:35.162Z,420
2018-05-17T06:47:35.737Z,404
2018-05-17T06:48:36.306Z,392
2018-05-17T06:49:36.880Z,384
2018-05-17T06:50:37.454Z,380
2018-05-17T06:51:38.029Z,396
2018-05-17T06:52:38.621Z,396
2018-05-17T06:53:39.188Z,392
2018-05-17T06:54:39.760Z,392
2018-05-17T06:55:40.335Z,376
2018-05-17T06:56:40.909Z,376
2018-05-17T06:57:41.482Z,384
2018-05-17T06:58:42.056Z,388
2018-05-17T06:59:42.631Z,420
2018-05-17T07:00:43.216Z,508
2018-05-17T07:01:43.780Z,408
2018-05-17T07:02:44.354Z,488
2018-05-17T07:03:44.934Z,460
2018-05-17T07:04:45.505Z,668
2018-05-17T07:05:46.088Z,684
2018-05-17T07:06:46.662Z,704
2018-05-17T07:07:47.235Z,720
2018-05-17T07:08:47.813Z,708
2018-05-17T07:09:48.396Z,672
2018-05-17T07:10:48.974Z,728
2018-05-17T07:11:49.544Z,816
2018-05-17T07:12:50.118Z,860
2018-05-17T07:13:50.693Z,884
2018-05-17T07:14:51.269Z,740
2018-05-17T07:15:51.842Z,716
2018-05-17T07:16:52.414Z,684
2018-05-17T07:17:53.035Z,708
2018-05-17T07:18:53.564Z,716
2018-05-17T07:19:54.136Z,724
2018-05-17T07:20:54.723Z,876
2018-05-17T07:21:55.296Z,848
2018-05-17T07:22:55.871Z,648
2018-05-17T07:23:56.445Z,636
2018-05-17T07:24:57.021Z,632
2018-05-17T07:25:57.593Z,884
2018-05-17T07:26:58.168Z,608
2018-05-17T07:27:58.744Z,584
2018-05-17T07:28:59.318Z,552
2018-05-17T07:29:59.893Z,584
2018-05-17T07:31:00.470Z,884
2018-05-17T07:32:01.043Z,632
2018-05-17T07:33:01.622Z,604
2018-05-17T07:34:02.206Z,496
2018-05-17T07:35:02.793Z,776
2018-05-17T07:36:03.375Z,672
2018-05-17T07:37:03.950Z,476
2018-05-17T07:38:04.525Z,480
2018-05-17T07:39:05.112Z,472
2018-05-17T07:40:05.685Z,464
2018-05-17T07:41:06.261Z,476
2018-05-17T07:42:06.838Z,460
2018-05-17T07:43:07.411Z,456
2018-05-17T07:44:07.985Z,456
2018-05-17T07:45:08.561Z,472
2018-05-17T07:46:09.135Z,456
2018-05-17T07:47:09.774Z,496
2018-05-17T07:48:10.284Z,508
2018-05-17T07:49:10.860Z,468
2018-05-17T07:50:11.436Z,488
2018-05-17T07:51:12.009Z,484
2018-05-17T07:52:12.595Z,496
2018-05-17T07:53:13.159Z,736
2018-05-17T07:54:13.736Z,844
2018-05-17T07:55:14.308Z,864
2018-05-17T07:56:14.884Z,880
2018-05-17T07:57:15.458Z,952
2018-05-17T07:58:16.035Z,1012
2018-05-17T07:59:16.611Z,1044
2018-05-17T08:00:17.196Z,876
2018-05-17T08:01:17.770Z,780
2018-05-17T08:02:18.347Z,940
2018-05-17T08:03:18.922Z,752
2018-05-17T08:04:19.494Z,764
2018-05-17T08:05:20.071Z,748
2018-05-17T08:06:20.646Z,704
2018-05-17T08:07:21.220Z,712
2018-05-17T08:08:21.795Z,664
2018-05-17T08:09:22.448Z,664
2018-05-17T08:10:22.947Z,664
2018-05-17T08:11:23.522Z,664
2018-05-17T08:12:24.097Z,668
2018-05-17T08:13:24.672Z,664
2018-05-17T08:14:25.256Z,676
2018-05-17T08:15:25.823Z,708
2018-05-17T08:16:26.400Z,728
2018-05-17T08:17:26.973Z,724
2018-05-17T08:18:27.547Z,704
2018-05-17T08:19:28.134Z,700
2018-05-17T08:20:28.707Z,668
2018-05-17T08:21:29.282Z,636
2018-05-17T08:22:29.857Z,596
2018-05-17T08:23:30.431Z,576
2018-05-17T08:24:31.013Z,576
2018-05-17T08:25:31.580Z,604
2018-05-17T08:26:32.155Z,632
2018-05-17T08:27:32.731Z,700
2018-05-17T08:28:33.305Z,832
2018-05-17T08:29:33.905Z,992
2018-05-17T08:30:34.487Z,760
2018-05-17T08:31:35.054Z,712
2018-05-17T08:32:35.627Z,704
2018-05-17T08:33:36.203Z,692
2018-05-17T08:34:36.780Z,660
2018-05-17T08:35:37.355Z,608
2018-05-17T08:36:38.055Z,532
2018-05-17T08:37:38.506Z,552
2018-05-17T08:38:39.084Z,472
2018-05-17T08:39:39.654Z,576
2018-05-17T08:40:40.230Z,604
2018-05-17T08:41:40.805Z,848
2018-05-17T08:42:41.459Z,824
2018-05-17T08:43:41.956Z,708
2018-05-17T08:44:42.530Z,604
2018-05-17T08:45:43.150Z,848
2018-05-17T08:46:43.683Z,536
2018-05-17T08:47:44.268Z,584
2018-05-17T08:48:44.841Z,808
2018-05-17T08:49:45.414Z,808
2018-05-17T08:50:45.991Z,824
2018-05-17T08:51:46.568Z,848
2018-05-17T08:52:47.143Z,860
2018-05-17T08:53:47.718Z,820
2018-05-17T08:54:48.296Z,576
2018-05-17T08:55:48.870Z,896
2018-05-17T08:56:49.451Z,916
2018-05-17T08:57:50.032Z,948
2018-05-17T08:58:50.609Z,692
2018-05-17T08:59:51.202Z,1028
2018-05-17T09:00:51.782Z,964
2018-05-17T09:01:52.348Z,672
2018-05-17T09:02:52.923Z,676
2018-05-17T09:03:53.499Z,716
2018-05-17T09:04:54.076Z,1080
2018-05-17T09:05:54.651Z,760
2018-05-17T09:06:55.224Z,776
2018-05-17T09:07:55.801Z,828
2018-05-17T09:08:56.389Z,720
2018-05-17T09:09:56.964Z,648
2018-05-17T09:10:57.540Z,868
2018-05-17T09:11:58.120Z,684
2018-05-17T09:12:58.703Z,696
2018-05-17T09:13:59.290Z,688
2018-05-17T09:14:59.867Z,720
2018-05-17T09:16:00.442Z,788
2018-05-17T09:17:01.037Z,860
2018-05-17T09:18:01.606Z,696
2018-05-17T09:19:02.185Z,1016
2018-05-17T09:20:02.791Z,1028
2018-05-17T09:21:03.347Z,656
2018-05-17T09:22:03.926Z,804
2018-05-17T09:23:04.509Z,960
2018-05-17T09:24:05.084Z,600
2018-05-17T09:25:05.664Z,652
2018-05-17T09:26:06.238Z,852
2018-05-17T09:27:06.818Z,924
2018-05-17T09:28:07.390Z,772
2018-05-17T09:29:08.013Z,860
2018-05-17T09:30:08.541Z,868
2018-05-17T09:31:09.123Z,876
2018-05-17T09:32:09.692Z,888
2018-05-17T09:33:10.268Z,664
2018-05-17T09:34:10.855Z,688
2018-05-17T09:35:11.437Z,856
2018-05-17T09:36:12.006Z,828
2018-05-17T09:37:12.582Z,876
2018-05-17T09:38:13.160Z,884
2018-05-17T09:39:13.735Z,868
2018-05-17T09:40:14.311Z,708
2018-05-17T09:41:14.888Z,804
2018-05-17T09:42:15.464Z,816
2018-05-17T09:43:16.038Z,820
2018-05-17T09:44:16.614Z,824
2018-05-17T09:45:17.201Z,836
2018-05-17T09:46:17.776Z,844
2018-05-17T09:47:18.358Z,856
2018-05-17T09:48:18.927Z,860
2018-05-17T09:49:19.504Z,560
2018-05-17T09:50:20.080Z,616
2018-05-17T09:51:20.657Z,556
2018-05-17T09:52:21.235Z,460
2018-05-17T09:53:21.809Z,580
2018-05-17T09:54:22.686Z,796
2018-05-17T09:55:23.264Z,784
2018-05-17T09:56:23.851Z,788
2018-05-17T09:57:24.427Z,784
2018-05-17T09:58:25.012Z,784
2018-05-17T09:59:25.596Z,784
2018-05-17T10:00:26.166Z,788
2018-05-17T10:01:26.743Z,788
2018-05-17T10:02:27.347Z,788
2018-05-17T10:03:27.924Z,796
2018-05-17T10:04:28.500Z,796
2018-05-17T10:05:29.083Z,796
2018-05-17T10:06:29.694Z,804
2018-05-17T10:07:30.269Z,832
2018-05-17T10:08:30.845Z,840
2018-05-17T10:09:31.424Z,716
2018-05-17T10:10:32.000Z,764
2018-05-17T10:11:32.577Z,748
2018-05-17T10:12:33.154Z,792
2018-05-17T10:13:33.730Z,796
2018-05-17T10:14:34.308Z,796
2018-05-17T10:15:34.895Z,660
2018-05-17T10:16:35.460Z,608
2018-05-17T10:17:36.045Z,784
2018-05-17T10:18:36.632Z,780
2018-05-17T10:19:37.210Z,784
2018-05-17T10:19:59.391Z,796
2018-05-17T10:20:59.970Z,800
2018-05-17T10:22:00.556Z,804
2018-05-17T10:23:01.149Z,824
2018-05-17T10:24:01.713Z,816
2018-05-17T10:25:02.300Z,820
2018-05-17T10:26:02.887Z,816
2018-05-17T10:27:03.464Z,820
2018-05-17T10:28:04.040Z,812
2018-05-17T10:29:04.618Z,820
2018-05-17T10:30:05.194Z,808
2018-05-17T10:31:05.769Z,800
2018-05-17T10:32:06.345Z,796
2018-05-17T10:33:06.931Z,796
2018-05-17T10:34:07.554Z,788
2018-05-17T10:35:08.091Z,792
2018-05-17T10:36:08.676Z,780
2018-05-17T10:37:09.253Z,788
2018-05-17T10:38:09.827Z,788
2018-05-17T10:39:10.415Z,796
2018-05-17T10:40:10.990Z,792
2018-05-17T10:41:11.566Z,776
2018-05-17T10:42:12.153Z,792
2018-05-17T10:43:12.734Z,796
2018-05-17T10:44:13.319Z,800
2018-05-17T10:45:13.895Z,396
2018-05-17T10:46:14.473Z,824
2018-05-17T10:47:15.049Z,824
2018-05-17T10:48:15.626Z,832
2018-05-17T10:49:16.204Z,820
2018-05-17T10:50:16.781Z,840
2018-05-17T10:51:17.359Z,840
2018-05-17T10:52:17.933Z,840
2018-05-17T10:53:18.509Z,836
2018-05-17T10:54:19.089Z,844
2018-05-17T10:55:19.664Z,852
2018-05-17T10:56:20.242Z,852
2018-05-17T10:57:20.821Z,484
2018-05-17T10:58:21.399Z,856
2018-05-17T10:59:21.975Z,832
2018-05-17T11:00:22.554Z,832
2018-05-17T11:01:23.131Z,820
2018-05-17T11:02:23.727Z,832
2018-05-17T11:03:24.296Z,836
2018-05-17T11:04:24.878Z,836
2018-05-17T11:05:25.460Z,840
2018-05-17T11:06:26.038Z,840
2018-05-17T11:07:26.616Z,840
2018-05-17T11:08:27.194Z,844
2018-05-17T11:09:27.782Z,836
2018-05-17T11:10:28.373Z,848
2018-05-17T11:11:28.951Z,844
2018-05-17T11:12:29.526Z,840
2018-05-17T11:13:30.104Z,848
2018-05-17T11:14:30.681Z,836
2018-05-17T11:15:31.257Z,852
2018-05-17T11:16:31.835Z,844
2018-05-17T11:17:32.414Z,848
2018-05-17T11:18:32.990Z,844
2018-05-17T11:19:33.569Z,848
2018-05-17T11:20:34.146Z,848
2018-05-17T11:21:34.725Z,856
2018-05-17T11:22:35.312Z,864
2018-05-17T11:23:35.900Z,856
2018-05-17T11:24:36.476Z,864
2018-05-17T11:25:37.057Z,864
2018-05-17T11:26:37.633Z,896
2018-05-17T11:27:38.224Z,860
2018-05-17T11:28:38.786Z,908
2018-05-17T11:29:39.367Z,536
2018-05-17T11:30:39.942Z,916
2018-05-17T11:31:40.530Z,928
2018-05-17T11:32:41.108Z,856
2018-05-17T11:33:41.686Z,532
2018-05-17T11:34:42.263Z,712
2018-05-17T11:35:42.843Z,884
2018-05-17T11:36:43.419Z,896
2018-05-17T11:37:44.014Z,880
2018-05-17T11:38:44.586Z,884
2018-05-17T11:39:45.179Z,888
2018-05-17T11:40:45.752Z,840
2018-05-17T11:41:46.331Z,892
2018-05-17T11:42:46.910Z,880
2018-05-17T11:43:47.487Z,832
2018-05-17T11:44:48.074Z,732
2018-05-17T11:45:48.650Z,892
2018-05-17T11:46:49.231Z,908
2018-05-17T11:47:49.805Z,900
2018-05-17T11:48:50.392Z,868
2018-05-17T11:49:50.972Z,896
2018-05-17T11:50:51.547Z,892
2018-05-17T11:51:52.128Z,892
2018-05-17T11:52:52.713Z,888
2018-05-17T11:53:53.302Z,888
2018-05-17T11:54:53.878Z,888
2018-05-17T11:55:54.455Z,888
2018-05-17T11:56:55.032Z,884
2018-05-17T11:57:55.610Z,888
2018-05-17T11:58:56.189Z,888
2018-05-17T11:59:56.779Z,888
2018-05-17T12:00:57.354Z,896
2018-05-17T12:01:57.934Z,896
2018-05-17T12:02:58.520Z,900
2018-05-17T12:03:59.104Z,904
2018-05-17T12:04:59.675Z,900
2018-05-17T12:06:00.253Z,896
2018-05-17T12:07:00.835Z,904
2018-05-17T12:08:01.406Z,908
2018-05-17T12:09:01.986Z,908
2018-05-17T12:10:02.562Z,912
2018-05-17T12:11:03.140Z,916
2018-05-17T12:12:03.718Z,920
2018-05-17T12:13:04.294Z,924
2018-05-17T12:14:04.872Z,928
2018-05-17T12:15:05.449Z,924
2018-05-17T12:16:06.032Z,924
2018-05-17T12:17:06.605Z,928
2018-05-17T12:18:07.183Z,932
2018-05-17T12:19:07.770Z,940
2018-05-17T12:20:08.349Z,940
2018-05-17T12:21:08.927Z,944
2018-05-17T12:22:09.507Z,944
2018-05-17T12:23:10.084Z,948
2018-05-17T12:24:10.660Z,952
2018-05-17T12:25:11.237Z,956
2018-05-17T12:26:11.827Z,960
2018-05-17T12:27:12.406Z,964
2018-05-17T12:28:12.984Z,964
2018-05-17T12:29:13.564Z,968
2018-05-17T12:30:14.141Z,980
2018-05-17T12:31:14.720Z,980
2018-05-17T12:32:15.300Z,1000
2018-05-17T12:33:15.877Z,980
2018-05-17T12:34:16.459Z,984
2018-05-17T12:35:17.040Z,992
2018-05-17T12:36:17.619Z,996
2018-05-17T12:37:18.198Z,996
2018-05-17T12:38:18.787Z,996
2018-05-17T12:39:19.362Z,1000
2018-05-17T12:40:19.942Z,1004
2018-05-17T12:41:20.519Z,1012
2018-05-17T12:42:21.098Z,1020
2018-05-17T12:43:21.675Z,1012
2018-05-17T12:44:22.254Z,1016
2018-05-17T12:45:22.836Z,1016
2018-05-17T12:46:23.412Z,1024
2018-05-17T12:47:23.991Z,1036
2018-05-17T12:48:24.571Z,1040
2018-05-17T12:49:25.150Z,1048
2018-05-17T12:50:25.734Z,1040
2018-05-17T12:51:26.320Z,1040
2018-05-17T12:52:26.899Z,1048
2018-05-17T12:53:27.478Z,1040
2018-05-17T12:54:28.068Z,1036
2018-05-17T12:55:28.651Z,1036
2018-05-17T12:56:29.225Z,1040
2018-05-17T12:57:29.806Z,1048
2018-05-17T12:58:30.396Z,1052
2018-05-17T12:59:30.965Z,1060
2018-05-17T13:00:31.544Z,1060
2018-05-17T13:01:32.134Z,1060
2018-05-17T13:02:32.712Z,1056
2018-05-17T13:03:33.292Z,1064
2018-05-17T13:04:33.872Z,1060
2018-05-17T13:05:34.448Z,1056
2018-05-17T13:06:35.028Z,1068
2018-05-17T13:07:35.609Z,1072
2018-05-17T13:08:36.188Z,1084
2018-05-17T13:09:36.779Z,1084
2018-05-17T13:10:37.358Z,1088
2018-05-17T13:11:37.938Z,1096
2018-05-17T13:12:38.517Z,1108
2018-05-17T13:13:39.096Z,1108
2018-05-17T13:14:39.677Z,1116
2018-05-17T13:15:40.256Z,1120
2018-05-17T13:16:40.839Z,1124
2018-05-17T13:17:41.417Z,1132
2018-05-17T13:18:41.995Z,1136
2018-05-17T13:19:42.575Z,1136
2018-05-17T13:20:43.159Z,1144
2018-05-17T13:21:43.746Z,1152
2018-05-17T13:22:44.323Z,1000
2018-05-17T13:23:44.902Z,1012
2018-05-17T13:24:45.485Z,996
2018-05-17T13:25:46.061Z,1152
2018-05-17T13:26:46.646Z,1152
2018-05-17T13:27:47.222Z,1152
2018-05-17T13:28:47.801Z,1152
2018-05-17T13:29:48.392Z,1148
2018-05-17T13:30:48.984Z,1144
2018-05-17T13:31:49.564Z,1156
2018-05-17T13:32:50.142Z,1172
2018-05-17T13:33:50.721Z,1184
2018-05-17T13:34:51.301Z,1184
2018-05-17T13:35:51.880Z,1204
2018-05-17T13:36:52.539Z,1208
2018-05-17T13:37:53.044Z,1212
2018-05-17T13:38:53.624Z,1216
2018-05-17T13:39:54.202Z,1216
2018-05-17T13:40:54.784Z,1232
2018-05-17T13:41:55.374Z,1240
2018-05-17T13:42:55.953Z,1260
2018-05-17T13:43:56.533Z,1284
2018-05-17T13:44:57.114Z,1268
2018-05-17T13:45:57.693Z,1292
2018-05-17T13:46:58.273Z,1304
2018-05-17T13:47:58.931Z,1312
2018-05-17T13:48:59.432Z,1320
2018-05-17T13:50:00.011Z,1324
2018-05-17T13:51:00.592Z,1336
2018-05-17T13:52:01.172Z,1336
2018-05-17T13:53:01.755Z,1352
2018-05-17T13:54:02.345Z,1352
2018-05-17T13:55:02.922Z,1316
2018-05-17T13:56:03.500Z,1204
2018-05-17T13:57:04.079Z,1328
2018-05-17T13:58:04.669Z,1336
2018-05-17T13:59:05.249Z,1340
2018-05-17T14:00:05.829Z,1356
2018-05-17T14:01:06.411Z,1368
2018-05-17T14:02:06.987Z,1364
2018-05-17T14:03:07.569Z,1352
2018-05-17T14:04:08.149Z,1344
2018-05-17T14:05:08.728Z,1352
2018-05-17T14:06:09.308Z,1364
2018-05-17T14:07:09.888Z,1364